Archival Weather

Chicago O'Hare International

Chicago, Illinois (KORD)

Report from: Tuesday, December 6, 2022 6:39 PM CST
Current time: Saturday, February 4, 2023 10:36 PM CST

Current weather
Weather history
Weather forecast

Temperature6.1°C (43.0°F)
Wind chill4.6°C (40.3°F)
Dew point2.8°C (37.0°F)
Winds 4 kts (2.1 m/s, 4.6 mph) East (80°)
Visibility7 mi. (11.3 km)
Clouds Scattered clouds 1,200 ft. (366 m)
Ceiling: Broken clouds 2,100 ft. (640 m)
Overcast 11,000 ft. (3,353 m)
Altimeter30.03 in.Hg (1017 mB)
Relative humidity79 %
Density altitude-1,087 ft. (-331 m)
Remarks Automated weather observing station with precipitation discriminator
Flight conditions Marginal Visual Meteorological Conditions
Raw dataKORD 070039Z 08004KT 7SM SCT012 BKN021 OVC110 06/03 A3003 RMK AO2 T00610028
An unhandled exception has occurred. See browser dev tools for details. Reload 🗙